Time;durP1;ratioP1;P1;durP2;ratioP2;P2;SDS_P1;SDS_P2;PMS_P1;PMS_P2;Temp;Humidity;BMP_temperature;BMP_pressure;BME280_temperature;BME280_humidity;BME280_pressure;Samples;Min_cycle;Max_cycle;Signal;HPM_P1;HPM_P2
2021/03/12 00:00:23;;;;;;;22.87;13.50;;;;;;;-2.11;62.55;100093.72;1776259;79;21449;-48
2021/03/12 00:02:51;;;;;;;32.53;17.62;;;;;;;-2.12;62.43;100094.60;1778138;78;21455;-46
2021/03/12 00:09:01;;;;;;;28.90;15.75;;;;;;;-2.05;62.51;100065.13;1749524;79;22755;-46
2021/03/12 00:11:31;;;;;;;27.87;14.58;;;;;;;-2.14;62.37;100076.52;1712012;82;21002;-51
2021/03/12 00:14:00;;;;;;;26.17;14.55;;;;;;;-2.15;62.43;100080.05;1692078;82;22293;-44
2021/03/12 00:16:28;;;;;;;36.53;16.27;;;;;;;-2.16;62.51;100071.67;1694338;82;21021;-46
2021/03/12 00:18:56;;;;;;;35.15;15.85;;;;;;;-2.15;62.51;100068.16;1694380;82;21123;-47
2021/03/12 00:21:24;;;;;;;25.17;14.38;;;;;;;-2.16;62.42;100069.47;1693990;82;20966;-49
2021/03/12 00:23:52;;;;;;;28.38;14.07;;;;;;;-2.16;62.37;100070.36;1691855;82;21383;-52
2021/03/12 00:26:21;;;;;;;29.35;14.68;;;;;;;-2.18;62.39;100056.27;1665897;82;21375;-52
2021/03/12 00:28:48;;;;;;;26.55;14.33;;;;;;;-2.18;62.39;100050.98;1695582;82;21760;-45
2021/03/12 00:31:16;;;;;;;23.47;13.93;;;;;;;-2.17;62.30;100060.67;1667974;82;21037;-45
2021/03/12 00:33:44;;;;;;;20.95;13.45;;;;;;;-2.18;62.35;100056.27;1694205;82;21172;-44
2021/03/12 00:36:13;;;;;;;21.23;13.72;;;;;;;-2.18;62.34;100060.67;1695881;82;21117;-45
2021/03/12 00:38:41;;;;;;;23.27;13.98;;;;;;;-2.18;62.38;100040.41;1693694;82;21579;-47
2021/03/12 00:41:09;;;;;;;22.73;13.62;;;;;;;-2.20;62.31;100039.50;1668348;82;21150;-45
2021/03/12 00:43:39;;;;;;;26.65;14.15;;;;;;;-2.21;62.28;100024.53;1691636;82;21025;-44
2021/03/12 00:46:11;;;;;;;27.67;14.18;;;;;;;-2.21;62.16;100037.73;1694918;82;21130;-46
2021/03/12 00:48:39;;;;;;;25.00;13.73;;;;;;;-2.21;62.16;100037.73;1695047;82;21132;-51
2021/03/12 00:51:07;;;;;;;19.45;12.25;;;;;;;-2.21;62.17;100029.81;1692517;82;21396;-51
2021/03/12 00:53:45;;;;;;;31.00;13.50;;;;;;;-2.18;62.15;100019.28;1814652;76;23141;-51
2021/03/12 00:56:13;;;;;;;27.85;13.72;;;;;;;-2.22;62.15;100017.48;1792738;78;20954;-49
2021/03/12 00:58:41;;;;;;;23.38;11.60;;;;;;;-2.24;62.10;100003.37;1794301;79;21370;-51
2021/03/12 01:01:10;;;;;;;25.52;12.60;;;;;;;-2.25;62.14;100008.22;1792592;77;21103;-50
2021/03/12 01:03:40;;;;;;;25.72;13.20;;;;;;;-2.26;62.24;99989.28;1746449;81;21146;-50
2021/03/12 01:06:09;;;;;;;28.00;16.48;;;;;;;-2.26;62.10;99984.00;1756106;79;21010;-51
2021/03/12 01:08:48;;;;;;;19.45;11.48;;;;;;;-2.22;62.05;99984.47;1804608;76;23320;-49
2021/03/12 01:11:17;;;;;;;21.95;13.05;;;;;;;-2.27;62.14;99973.44;1753605;79;21316;-49
2021/03/12 01:13:45;;;;;;;27.17;14.07;;;;;;;-2.29;62.21;99950.99;1773067;79;21545;-50
2021/03/12 01:16:13;;;;;;;23.45;12.23;;;;;;;-2.29;62.15;99954.95;1773833;79;20990;-49
2021/03/12 01:18:41;;;;;;;24.40;13.58;;;;;;;-2.30;62.12;99945.23;1774684;79;21562;-49
2021/03/12 01:21:22;;;;;;;30.37;14.87;;;;;;;-2.26;62.17;99936.45;1852274;74;22626;-50
2021/03/12 01:23:52;;;;;;;22.00;11.25;;;;;;;-2.30;62.14;99947.87;1829071;75;21080;-49
2021/03/12 01:26:20;;;;;;;19.73;12.47;;;;;;;-2.30;62.07;99942.59;1825659;76;22107;-49
2021/03/12 01:28:51;;;;;;;30.15;15.75;;;;;;;-2.29;62.04;99942.16;1828507;76;21044;-50
2021/03/12 01:31:21;;;;;;;29.60;14.33;;;;;;;-2.30;62.07;99933.80;1829711;75;20950;-50
2021/03/12 01:33:50;;;;;;;20.40;10.43;;;;;;;-2.30;61.99;99926.75;1832072;75;20930;-50
2021/03/12 01:36:20;;;;;;;22.02;12.35;;;;;;;-2.29;61.76;99941.75;1829822;75;20962;-51
2021/03/12 01:38:50;;;;;;;22.40;11.97;;;;;;;-2.31;61.88;99940.84;1830575;75;21687;-48
2021/03/12 01:41:18;;;;;;;29.27;12.20;;;;;;;-2.32;61.91;99943.03;1829088;75;21012;-49
2021/03/12 01:43:47;;;;;;;28.07;11.45;;;;;;;-2.33;61.93;99954.48;1830773;75;21001;-50
2021/03/12 01:46:16;;;;;;;19.12;9.90;;;;;;;-2.34;61.87;99952.72;1828828;75;21130;-49
2021/03/12 01:48:44;;;;;;;31.55;12.05;;;;;;;-2.34;61.97;99969.89;1835460;75;21036;-49
2021/03/12 01:51:12;;;;;;;20.77;11.12;;;;;;;-2.34;62.00;99980.45;1830769;75;22855;-49
2021/03/12 01:53:40;;;;;;;19.62;10.40;;;;;;;-2.37;61.99;99953.58;1830492;75;21132;-48
2021/03/12 01:56:10;;;;;;;21.97;11.18;;;;;;;-2.37;62.00;99952.70;1832744;77;21008;-49
2021/03/12 01:58:42;;;;;;;22.45;11.93;;;;;;;-2.38;62.07;99946.98;1827251;75;20997;-49
2021/03/12 02:01:12;;;;;;;23.65;11.33;;;;;;;-2.39;62.15;99939.94;1832369;75;21139;-49
2021/03/12 02:03:42;;;;;;;21.70;11.75;;;;;;;-2.41;62.27;99936.38;1810596;76;21369;-49
2021/03/12 02:06:15;;;;;;;22.65;11.43;;;;;;;-2.40;62.25;99914.38;1831295;75;21667;-49
2021/03/12 02:08:43;;;;;;;18.70;10.88;;;;;;;-2.40;62.18;99909.09;1828863;75;21005;-50
2021/03/12 02:11:27;;;;;;;22.45;10.78;;;;;;;-2.34;62.18;99912.20;1811014;76;22899;-49
2021/03/12 02:14:02;;;;;;;25.17;11.50;;;;;;;-2.39;62.21;99926.73;1762601;79;21461;-49
2021/03/12 02:16:42;;;;;;;25.55;11.97;;;;;;;-2.40;62.22;99914.38;1762852;79;22166;-50
2021/03/12 02:19:51;;;;;;;23.15;11.22;;;;;;;-2.44;62.26;99902.06;1760830;79;21005;-49
2021/03/12 02:22:27;;;;;;;24.87;12.43;;;;;;;-2.40;62.39;99890.61;1786296;78;23324;-50
2021/03/12 02:24:58;;;;;;;24.72;11.25;;;;;;;-2.47;62.39;99896.75;1749086;79;20965;-49
2021/03/12 02:27:28;;;;;;;23.00;12.05;;;;;;;-2.46;62.48;99911.71;1752336;80;22190;-49
2021/03/12 02:29:56;;;;;;;31.37;11.97;;;;;;;-2.48;62.53;99897.63;1717138;80;21041;-51
2021/03/12 02:32:33;;;;;;;16.75;10.08;;;;;;;-2.50;62.62;99904.67;1721878;80;21565;-53
2021/03/12 02:35:05;;;;;;;21.25;11.85;;;;;;;-2.53;62.67;99887.48;1738018;80;20986;-50
2021/03/12 02:37:33;;;;;;;21.87;11.78;;;;;;;-2.55;62.78;99886.61;1749152;79;21518;-49
2021/03/12 02:40:02;;;;;;;18.42;10.85;;;;;;;-2.55;62.86;99858.89;1749840;79;21191;-51
2021/03/12 02:42:40;;;;;;;30.68;12.65;;;;;;;-2.51;62.89;99884.41;1788723;78;22697;-50
2021/03/12 02:45:11;;;;;;;27.48;12.20;;;;;;;-2.59;63.05;99879.10;1756888;79;20978;-49
2021/03/12 02:47:40;;;;;;;34.63;13.78;;;;;;;-2.60;63.12;99885.27;1743970;80;22070;-49
2021/03/12 02:50:10;;;;;;;27.05;12.10;;;;;;;-2.59;63.11;99872.95;1756601;79;21073;-50
2021/03/12 02:52:39;;;;;;;23.55;10.60;;;;;;;-2.62;63.05;99867.64;1749385;80;20992;-50
2021/03/12 02:55:07;;;;;;;22.85;12.58;;;;;;;-2.66;63.12;99875.56;1732644;80;21033;-50
2021/03/12 02:58:07;;;;;;;26.30;11.65;;;;;;;-2.59;63.19;99862.38;1742371;79;22716;-50
2021/03/12 03:00:35;;;;;;;29.05;13.75;;;;;;;-2.68;63.22;99849.58;1762192;80;21038;-49
2021/03/12 03:03:09;;;;;;;31.65;11.48;;;;;;;-2.71;63.24;99849.58;1775122;80;21589;-50
2021/03/12 03:05:41;;;;;;;26.33;13.05;;;;;;;-2.72;63.33;99847.78;1708177;82;21113;-49
2021/03/12 03:08:11;;;;;;;24.32;13.45;;;;;;;-2.73;63.45;99849.98;1771714;80;21151;-48
2021/03/12 03:10:39;;;;;;;22.05;11.88;;;;;;;-2.74;63.46;99853.52;1777375;80;21355;-49
2021/03/12 03:13:08;;;;;;;28.50;11.22;;;;;;;-2.76;63.54;99844.72;1771840;80;21511;-49
2021/03/12 03:15:38;;;;;;;31.62;12.10;;;;;;;-2.75;63.45;99828.00;1777812;80;22297;-49
2021/03/12 03:18:08;;;;;;;27.62;13.60;;;;;;;-2.78;63.29;99849.08;1711477;83;21026;-49
2021/03/12 03:20:38;;;;;;;29.90;12.30;;;;;;;-2.79;63.46;99831.49;1704725;83;21076;-49
2021/03/12 03:23:06;;;;;;;29.10;12.55;;;;;;;-2.81;63.52;99833.25;1671599;82;21180;-48
2021/03/12 03:25:36;;;;;;;25.43;12.73;;;;;;;-2.83;63.43;99838.94;1733305;80;21112;-48
2021/03/12 03:28:05;;;;;;;26.05;12.50;;;;;;;-2.83;63.45;99832.34;1780055;80;21467;-48
2021/03/12 03:30:34;;;;;;;24.23;12.68;;;;;;;-2.85;63.32;99836.74;1710878;82;21171;-50
2021/03/12 03:33:04;;;;;;;22.00;11.43;;;;;;;-2.86;63.38;99825.75;1772668;80;21692;-49
2021/03/12 03:35:32;;;;;;;27.40;12.78;;;;;;;-2.87;63.50;99816.08;1767155;80;21168;-48
2021/03/12 03:38:01;;;;;;;31.37;13.15;;;;;;;-2.88;63.49;99818.24;1770297;80;21585;-50
2021/03/12 03:40:29;;;;;;;24.95;12.33;;;;;;;-2.88;63.58;99808.13;1712915;82;21385;-48
2021/03/12 03:42:59;;;;;;;34.18;14.28;;;;;;;-2.89;63.76;99801.98;1774756;80;21288;-49
2021/03/12 03:45:29;;;;;;;28.15;14.98;;;;;;;-2.92;63.98;99805.94;1771718;80;21118;-46
2021/03/12 03:48:11;;;;;;;23.47;13.70;;;;;;;-2.94;63.96;99800.63;1773424;80;21531;-46
2021/03/12 03:50:40;;;;;;;34.95;16.00;;;;;;;-2.94;63.86;99805.03;1659820;83;21172;-48
2021/03/12 03:53:10;;;;;;;24.85;13.18;;;;;;;-2.94;64.05;99797.11;1710666;82;22102;-47
2021/03/12 03:55:41;;;;;;;24.50;10.70;;;;;;;-2.97;64.03;99774.69;1764712;79;21045;-46
2021/03/12 03:58:10;;;;;;;21.73;11.30;;;;;;;-2.99;64.10;99790.93;1682362;83;21191;-47
2021/03/12 04:00:38;;;;;;;23.83;11.68;;;;;;;-3.01;63.94;99787.41;1737288;81;21134;-48
2021/03/12 04:03:08;;;;;;;28.90;13.10;;;;;;;-3.03;64.04;99760.16;1737209;81;21621;-46
2021/03/12 04:05:38;;;;;;;27.22;14.98;;;;;;;-3.05;64.24;99789.59;1774265;80;21376;-48
2021/03/12 04:08:06;;;;;;;27.73;14.63;;;;;;;-3.05;64.34;99797.50;1760938;80;21630;-47
2021/03/12 04:10:34;;;;;;;31.00;15.63;;;;;;;-3.06;64.51;99806.30;1735119;80;20984;-47
2021/03/12 04:13:03;;;;;;;33.98;16.60;;;;;;;-3.06;64.58;99807.61;1774044;80;20955;-48
2021/03/12 04:15:31;;;;;;;29.25;15.68;;;;;;;-3.07;64.63;99812.45;1772361;80;21569;-47
2021/03/12 04:18:00;;;;;;;26.70;14.40;;;;;;;-3.08;64.54;99809.38;1737193;80;21368;-47
2021/03/12 04:20:29;;;;;;;32.63;16.57;;;;;;;-3.10;64.60;99806.70;1777152;80;20998;-45
2021/03/12 04:22:57;;;;;;;29.52;14.33;;;;;;;-3.11;64.57;99811.98;1777911;80;21545;-53
2021/03/12 04:25:28;;;;;;;30.45;14.90;;;;;;;-3.11;64.62;99819.89;1704112;83;21126;-46
2021/03/12 04:27:56;;;;;;;27.50;15.25;;;;;;;-3.11;64.50;99806.70;1770053;80;21155;-47
2021/03/12 04:30:25;;;;;;;31.30;15.00;;;;;;;-3.10;64.44;99792.64;1780916;79;21382;-45
2021/03/12 04:32:53;;;;;;;28.87;15.23;;;;;;;-3.12;64.24;99799.67;1773219;80;21156;-46
2021/03/12 04:35:21;;;;;;;31.82;17.07;;;;;;;-3.12;64.34;99797.03;1694528;83;21658;-47
2021/03/12 04:37:50;;;;;;;27.13;14.43;;;;;;;-3.12;64.35;99807.58;1712247;81;21130;-49
2021/03/12 04:40:18;;;;;;;26.07;12.65;;;;;;;-3.11;64.22;99798.80;1700426;81;21690;-46
2021/03/12 04:42:48;;;;;;;29.98;14.87;;;;;;;-3.14;64.07;99810.63;1766205;80;21376;-46
2021/03/12 04:45:17;;;;;;;30.62;16.37;;;;;;;-3.17;64.10;99818.98;1738035;80;21608;-45
2021/03/12 04:47:47;;;;;;;33.23;14.60;;;;;;;-3.17;64.11;99824.70;1677279;83;21164;-47
2021/03/12 04:50:17;;;;;;;25.23;13.80;;;;;;;-3.19;63.74;99815.47;1745722;80;21105;-48
2021/03/12 04:52:46;;;;;;;29.85;15.15;;;;;;;-3.22;63.58;99835.66;1700776;82;21108;-47
2021/03/12 04:55:16;;;;;;;27.77;11.73;;;;;;;-3.22;63.54;99838.29;1712746;82;21662;-48
2021/03/12 04:57:45;;;;;;;31.97;13.68;;;;;;;-3.22;63.45;99833.89;1703522;82;21155;-48
2021/03/12 05:00:15;;;;;;;33.45;13.48;;;;;;;-3.24;63.52;99834.33;1696678;83;21127;-47
2021/03/12 05:02:53;;;;;;;24.23;12.23;;;;;;;-3.24;63.50;99830.38;1709302;82;21010;-47
2021/03/12 05:05:23;;;;;;;26.23;13.32;;;;;;;-3.24;63.40;99806.64;1734146;81;21164;-47
2021/03/12 05:07:52;;;;;;;36.93;14.60;;;;;;;-3.25;63.35;99818.07;1773301;80;21339;-43
2021/03/12 05:10:22;;;;;;;27.17;12.77;;;;;;;-3.25;63.44;99820.70;1758084;80;21099;-46
2021/03/12 05:12:50;;;;;;;29.87;13.98;;;;;;;-3.25;63.39;99827.30;1756918;80;21148;-45
2021/03/12 05:15:19;;;;;;;31.80;14.28;;;;;;;-3.27;63.41;99819.80;1657923;83;21133;-45
2021/03/12 05:17:49;;;;;;;29.15;14.38;;;;;;;-3.29;63.37;99811.00;1675939;83;21117;-45
2021/03/12 05:20:17;;;;;;;33.53;14.23;;;;;;;-3.30;63.45;99819.80;1748747;80;22270;-45
2021/03/12 05:22:46;;;;;;;27.07;14.25;;;;;;;-3.30;63.47;99828.11;1674949;82;21148;-46
2021/03/12 05:25:14;;;;;;;31.00;14.45;;;;;;;-3.29;63.60;99830.78;1733816;81;21609;-47
2021/03/12 05:27:42;;;;;;;27.77;15.23;;;;;;;-3.29;63.57;99819.36;1704165;81;21234;-45
2021/03/12 05:30:11;;;;;;;29.30;15.08;;;;;;;-3.31;63.59;99820.64;1737996;81;21144;-46
2021/03/12 05:32:40;;;;;;;33.30;15.50;;;;;;;-3.29;63.61;99808.37;1772312;80;21204;-46
2021/03/12 05:35:11;;;;;;;37.13;15.88;;;;;;;-3.30;63.58;99795.16;1751846;80;21194;-47
2021/03/12 05:37:39;;;;;;;37.88;16.65;;;;;;;-3.32;63.67;99791.20;1753526;80;21178;-46
2021/03/12 05:40:09;;;;;;;31.17;15.85;;;;;;;-3.29;63.67;99782.44;1759987;79;21124;-46
2021/03/12 05:42:39;;;;;;;31.05;17.30;;;;;;;-3.30;63.56;99785.52;1710252;82;21153;-45
2021/03/12 05:45:09;;;;;;;25.70;13.13;;;;;;;-3.31;63.60;99781.09;1762416;80;21374;-46
2021/03/12 05:47:38;;;;;;;42.05;18.50;;;;;;;-3.32;63.74;99792.52;1698584;82;21176;-45
2021/03/12 05:50:09;;;;;;;34.75;17.02;;;;;;;-3.30;63.78;99801.34;1747875;79;21163;-45
2021/03/12 05:52:37;;;;;;;37.15;17.80;;;;;;;-3.29;63.72;99792.55;1736362;81;21143;-46
2021/03/12 05:55:06;;;;;;;35.15;15.75;;;;;;;-3.29;63.75;99783.32;1734543;80;21137;-48
2021/03/12 05:57:35;;;;;;;33.63;18.15;;;;;;;-3.29;63.69;99821.55;1767096;80;21358;-47
2021/03/12 06:00:05;;;;;;;40.33;18.35;;;;;;;-3.28;63.67;99807.48;1770765;80;21664;-46
2021/03/12 06:02:35;;;;;;;;;;;;;;;-3.25;63.62;99802.25;1711965;82;21165;-47
2021/03/12 06:05:07;;;;;;;41.35;16.10;;;;;;;-3.22;63.40;99799.61;1742053;81;20205;-47
2021/03/12 06:07:43;;;;;;;29.45;14.00;;;;;;;-3.12;63.24;99812.86;1775212;77;22898;-47
2021/03/12 06:10:12;;;;;;;32.42;14.58;;;;;;;-3.17;63.08;99795.24;1761000;80;20972;-48
2021/03/12 06:12:42;;;;;;;39.60;14.75;;;;;;;-3.16;62.99;99790.41;1758047;80;22396;-46
2021/03/12 06:15:11;;;;;;;33.33;14.45;;;;;;;-3.18;62.71;99781.63;1727907;82;21745;-47
2021/03/12 06:17:49;;;;;;;29.42;14.60;;;;;;;-3.12;62.51;99770.66;1785295;76;22769;-47
2021/03/12 06:20:20;;;;;;;31.80;14.40;;;;;;;-3.18;62.33;99775.03;1779674;79;21065;-46
2021/03/12 06:22:54;;;;;;;39.13;16.87;;;;;;;-3.14;62.33;99761.84;1780909;79;21884;-47
2021/03/12 06:25:26;;;;;;;32.83;17.17;;;;;;;-3.10;62.11;99755.27;1780828;79;21002;-47
2021/03/12 06:28:19;;;;;;;27.55;12.68;;;;;;;-3.05;62.00;99740.78;1780801;79;21531;-47
2021/03/12 06:31:17;;;;;;;38.92;17.27;;;;;;;-2.99;61.53;99736.85;1809941;77;22756;-47
2021/03/12 06:33:50;;;;;;;40.17;15.63;;;;;;;-3.04;61.52;99731.99;1757765;79;21090;-48
2021/03/12 06:36:29;;;;;;;55.55;19.30;;;;;;;-2.93;61.47;99727.64;1840524;76;22840;-46
2021/03/12 06:39:08;;;;;;;35.00;16.12;;;;;;;-2.95;61.14;99732.04;1811531;77;21605;-46
2021/03/12 06:41:48;;;;;;;30.88;15.13;;;;;;;-2.86;61.03;99732.08;1808061;76;23341;-49
2021/03/12 06:44:33;;;;;;;42.08;17.92;;;;;;;-2.87;61.03;99743.52;1762888;78;21687;-49
2021/03/12 06:47:03;;;;;;;36.03;17.00;;;;;;;-2.80;61.00;99743.97;1761587;78;21372;-49
2021/03/12 06:49:32;;;;;;;37.10;14.85;;;;;;;-2.75;60.39;99719.80;1766008;79;20950;-49
2021/03/12 06:52:10;;;;;;;35.92;16.62;;;;;;;-2.71;60.27;99717.62;1824660;76;22718;-49
2021/03/12 06:54:53;;;;;;;;;;;;;;;-2.79;60.31;99725.94;1790652;78;21172;-47
2021/03/12 06:57:23;;;;;;;37.08;18.17;;;;;;;-2.76;60.42;99725.08;1793337;78;21739;-48
2021/03/12 07:00:06;;;;;;;36.65;15.95;;;;;;;-2.65;60.31;99705.75;1864026;74;23229;-47
2021/03/12 07:02:37;;;;;;;43.42;18.52;;;;;;;-2.67;59.93;99724.64;1808908;75;21009;-48
2021/03/12 07:05:08;;;;;;;39.70;16.30;;;;;;;-2.66;59.92;99726.42;1801023;77;21375;-48
2021/03/12 07:07:45;;;;;;;37.13;16.07;;;;;;;-2.62;59.85;99725.09;1802973;77;21542;-50
2021/03/12 07:10:36;;;;;;;39.27;16.02;;;;;;;-2.60;59.90;99720.28;1799920;77;21024;-48
2021/03/12 07:13:26;;;;;;;34.80;13.72;;;;;;;-2.46;59.79;99721.61;1856350;75;22838;-52
2021/03/12 07:15:57;;;;;;;23.85;13.15;;;;;;;-2.49;59.41;99726.91;1769494;78;21100;-55
2021/03/12 07:18:26;;;;;;;31.10;12.88;;;;;;;-2.47;59.45;99733.05;1770232;79;21336;-51
2021/03/12 07:20:56;;;;;;;26.23;13.93;;;;;;;-2.48;59.38;99699.61;1796406;77;21069;-56
2021/03/12 07:23:25;;;;;;;32.50;13.13;;;;;;;-2.49;59.33;99705.78;1795020;77;20931;-51
2021/03/12 07:25:54;;;;;;;41.40;15.13;;;;;;;-2.48;59.37;99701.81;1767757;78;21148;-53
2021/03/12 07:28:24;;;;;;;33.42;13.75;;;;;;;-2.45;59.37;99660.00;1771088;77;21005;-54
2021/03/12 07:31:16;;;;;;;33.33;14.07;;;;;;;-2.45;59.28;99684.67;1790915;77;22264;-57
2021/03/12 07:33:52;;;;;;;43.42;15.65;;;;;;;-2.40;59.37;99686.88;1793318;77;21005;-57
2021/03/12 07:36:23;;;;;;;37.95;11.97;;;;;;;-2.34;59.45;99658.27;1761991;78;21145;-58
2021/03/12 07:38:56;;;;;;;35.47;15.67;;;;;;;-2.36;58.94;99690.38;1796243;77;20997;-56
2021/03/12 07:41:26;;;;;;;32.53;15.65;;;;;;;-2.39;59.07;99674.55;1793250;78;21025;-56
2021/03/12 07:44:06;;;;;;;36.73;14.70;;;;;;;-2.33;59.04;99697.44;1788110;77;23178;-58
2021/03/12 07:46:37;;;;;;;26.10;11.83;;;;;;;-2.37;58.98;99700.50;1715944;81;21074;-56
2021/03/12 07:49:33;;;;;;;34.48;13.30;;;;;;;-2.35;58.97;99686.85;1705424;83;21611;-57
2021/03/12 07:52:17;;;;;;;33.03;14.80;;;;;;;-2.29;58.92;99672.36;1811538;76;27934;-58
2021/03/12 07:54:49;;;;;;;37.15;16.75;;;;;;;-2.34;59.04;99651.67;1793574;78;21013;-54
2021/03/12 07:57:38;;;;;;;23.80;11.45;;;;;;;-2.29;59.22;99647.27;1814515;76;22867;-52
2021/03/12 08:00:18;;;;;;;27.65;11.08;;;;;;;-2.35;59.20;99630.08;1790188;77;21113;-55
2021/03/12 08:03:11;;;;;;;27.58;12.37;;;;;;;-2.31;59.42;99642.41;1804074;76;22706;-54
2021/03/12 08:05:47;;;;;;;40.15;14.28;;;;;;;-2.34;59.53;99646.39;1751833;79;21018;-52
2021/03/12 08:08:34;;;;;;;29.30;12.20;;;;;;;-2.26;59.72;99638.00;1856656;75;22853;-53
2021/03/12 08:11:33;;;;;;;37.63;14.40;;;;;;;-2.30;59.57;99636.23;1747621;80;21067;-57
2021/03/12 08:14:18;;;;;;;25.97;13.30;;;;;;;-2.21;59.55;99662.66;1784423;77;22695;-57
2021/03/12 08:17:04;;;;;;;29.80;15.93;;;;;;;-2.21;59.66;99665.73;1740895;79;20988;-55
2021/03/12 08:19:39;;;;;;;30.48;13.43;;;;;;;-2.19;59.47;99664.84;1726881;80;22269;-55
2021/03/12 08:22:42;;;;;;;27.80;14.10;;;;;;;-2.13;59.60;99647.70;1827426;76;22647;-52
2021/03/12 08:25:14;;;;;;;35.63;12.68;;;;;;;-2.15;59.62;99644.16;1780071;79;21016;-50
2021/03/12 08:27:54;;;;;;;27.93;14.30;;;;;;;-2.11;59.55;99635.35;1827919;77;22712;-49
2021/03/12 08:30:41;;;;;;;34.08;14.13;;;;;;;-2.16;59.66;99638.88;1809932;78;21041;-49
2021/03/12 08:33:28;;;;;;;35.15;15.00;;;;;;;-2.14;59.81;99652.52;1808871;78;21384;-55
2021/03/12 08:36:25;;;;;;;29.25;13.43;;;;;;;-2.11;59.84;99647.24;1741132;82;21593;-56
2021/03/12 08:39:28;;;;;;;33.05;14.68;;;;;;;-2.06;59.87;99650.33;1807332;78;21464;-55
2021/03/12 08:42:08;;;;;;;32.48;14.07;;;;;;;-1.92;59.71;99636.22;1821957;76;38853;-53
2021/03/12 08:44:48;;;;;;;31.17;15.48;;;;;;;-1.84;59.39;99628.27;1812473;76;22739;-53
2021/03/12 08:47:26;;;;;;;31.10;11.60;;;;;;;-1.81;59.35;99628.27;1732290;78;22896;-56
2021/03/12 08:49:56;;;;;;;23.90;12.13;;;;;;;-1.83;59.23;99635.74;1698990;81;21059;-55
2021/03/12 08:52:26;;;;;;;25.00;12.68;;;;;;;-1.84;59.16;99621.66;1698646;81;22214;-48
2021/03/12 08:54:56;;;;;;;23.27;11.95;;;;;;;-1.85;59.19;99600.08;1699756;81;21030;-48
2021/03/12 08:57:25;;;;;;;18.55;11.05;;;;;;;-1.83;59.27;99598.74;1699117;81;21660;-48
2021/03/12 09:00:07;;;;;;;24.32;11.68;;;;;;;-1.80;59.27;99595.66;1705356;81;21875;-47
2021/03/12 09:02:53;;;;;;;28.52;11.28;;;;;;;-1.77;59.45;99594.31;1813440;76;22713;-52
2021/03/12 09:05:27;;;;;;;21.93;11.22;;;;;;;-1.82;59.52;99584.19;1808983;77;20966;-47
2021/03/12 09:08:25;;;;;;;28.25;10.93;;;;;;;-1.78;59.68;99591.23;1820899;76;22354;-50
2021/03/12 09:11:23;;;;;;;26.85;10.50;;;;;;;-1.76;59.79;99588.13;1799608;77;22835;-47
2021/03/12 09:14:01;;;;;;;29.07;11.25;;;;;;;-1.74;59.91;99598.28;1810408;77;22779;-47
2021/03/12 09:16:36;;;;;;;30.23;10.70;;;;;;;-1.74;59.99;99582.42;1768464;79;20986;-49
2021/03/12 09:19:03;;;;;;;24.82;11.50;;;;;;;-1.72;59.85;99577.99;1753275;79;21376;-51
2021/03/12 09:21:41;;;;;;;22.67;10.60;;;;;;;-1.67;59.96;99595.17;1807113;76;23349;-47
2021/03/12 09:24:11;;;;;;;23.75;10.28;;;;;;;-1.70;60.03;99590.78;1746903;80;21041;-49
2021/03/12 09:26:41;;;;;;;31.10;11.55;;;;;;;-1.68;60.09;99577.11;1757009;79;21464;-49
2021/03/12 09:29:14;;;;;;;26.00;11.18;;;;;;;-1.67;60.07;99568.28;1760742;79;21068;-49
2021/03/12 09:31:44;;;;;;;27.85;11.80;;;;;;;-1.68;60.08;99561.25;1730411;80;20993;-48
2021/03/12 09:34:26;;;;;;;28.23;12.58;;;;;;;-1.66;60.15;99575.33;1759222;78;20989;-49
2021/03/12 09:37:04;;;;;;;25.02;12.68;;;;;;;-1.62;60.14;99567.83;1813687;76;22683;-47
2021/03/12 09:39:45;;;;;;;25.27;9.88;;;;;;;-1.62;60.29;99565.63;1825817;76;22675;-49
2021/03/12 09:42:23;;;;;;;31.73;10.98;;;;;;;-1.68;60.37;99559.92;1684720;82;21016;-45
2021/03/12 09:44:56;;;;;;;22.93;10.70;;;;;;;-1.71;60.59;99540.09;1791455;77;22159;-46
2021/03/12 09:47:26;;;;;;;29.60;9.78;;;;;;;-1.71;61.55;99555.95;1789871;78;21000;-48
2021/03/12 09:49:58;;;;;;;21.25;10.38;;;;;;;-1.71;61.51;99545.38;1788827;78;21039;-46
2021/03/12 09:52:28;;;;;;;21.70;9.93;;;;;;;-1.71;62.44;99534.81;1789583;78;20996;-56
2021/03/12 09:54:58;;;;;;;18.67;9.93;;;;;;;-1.71;62.44;99534.81;1750878;78;21519;-48
2021/03/12 09:57:29;;;;;;;22.48;11.65;;;;;;;-1.71;62.51;99542.73;1787893;78;21386;-48
2021/03/12 09:59:59;;;;;;;18.65;9.40;;;;;;;-1.70;62.78;99560.38;1789509;78;21638;-45
2021/03/12 10:02:58;;;;;;;21.42;7.65;;;;;;;-1.64;63.22;99540.97;1821556;75;22742;-51
2021/03/12 10:05:29;;;;;;;21.15;9.25;;;;;;;-1.69;63.81;99531.73;1804096;77;20989;-48
2021/03/12 10:08:05;;;;;;;;;;;;;;;-1.69;64.31;99540.98;1818945;77;21387;-50
2021/03/12 10:10:56;;;;;;;21.37;8.90;;;;;;;-1.69;64.85;99534.38;1816197;77;20612;-47
2021/03/12 10:13:28;;;;;;;20.37;9.40;;;;;;;-1.72;64.71;99527.77;1811202;77;21056;-47
2021/03/12 10:15:59;;;;;;;23.10;10.10;;;;;;;-1.74;65.48;99516.34;1819568;77;21126;-51
2021/03/12 10:18:37;;;;;;;20.43;9.50;;;;;;;-1.72;66.19;99507.95;1823988;77;22208;-50
2021/03/12 10:21:11;;;;;;;24.95;10.68;;;;;;;-1.79;66.71;99528.70;1731227;80;21121;-48
2021/03/12 10:23:39;;;;;;;25.40;10.38;;;;;;;-1.76;67.45;99528.66;1790772;78;21198;-49
2021/03/12 10:26:09;;;;;;;20.45;10.08;;;;;;;-1.75;68.55;99519.88;1753874;80;21009;-47
2021/03/12 10:28:37;;;;;;;19.07;10.45;;;;;;;-1.79;69.58;99528.70;1789344;78;21029;-49
2021/03/12 10:31:06;;;;;;;19.75;10.53;;;;;;;-1.84;70.72;99527.83;1779031;78;21104;-55
2021/03/12 10:33:35;;;;;;;27.55;11.93;;;;;;;-1.85;71.48;99508.45;1789320;78;21058;-56
2021/03/12 10:36:07;;;;;;;27.32;11.35;;;;;;;-1.87;72.59;99511.97;1789318;78;20999;-52
2021/03/12 10:38:35;;;;;;;24.77;11.63;;;;;;;-1.90;72.83;99508.05;1759546;78;21735;-52
2021/03/12 10:41:22;;;;;;;19.77;10.65;;;;;;;-1.92;73.90;99498.81;1790766;78;21605;-54
2021/03/12 10:44:01;;;;;;;24.67;10.18;;;;;;;-1.94;74.83;99504.97;1790537;78;20985;-53
2021/03/12 10:46:30;;;;;;;22.15;10.98;;;;;;;-1.98;76.21;99496.61;1792329;78;21001;-51
2021/03/12 10:49:01;;;;;;;26.70;12.10;;;;;;;-2.03;77.43;99499.71;1791110;78;21204;-53
2021/03/12 10:51:41;;;;;;;27.95;13.50;;;;;;;-2.06;79.24;99502.38;1791237;78;20993;-53
2021/03/12 10:54:17;;;;;;;26.77;11.68;;;;;;;-2.05;81.04;99501.49;1817967;76;22700;-52
2021/03/12 10:56:47;;;;;;;21.37;12.70;;;;;;;-2.13;82.37;99499.77;1758315;78;21556;-53
2021/03/12 10:59:15;;;;;;;24.85;12.35;;;;;;;-2.15;82.99;99501.95;1765035;78;21365;-57
2021/03/12 11:01:46;;;;;;;25.90;12.10;;;;;;;-2.18;84.08;99493.62;1760149;78;21569;-48
2021/03/12 11:04:16;;;;;;;21.82;12.30;;;;;;;-2.20;84.89;99498.00;1699360;82;21052;-49
2021/03/12 11:06:44;;;;;;;24.67;12.07;;;;;;;-2.19;85.46;99497.11;1712704;81;21015;-48
2021/03/12 11:09:13;;;;;;;23.90;12.18;;;;;;;-2.18;85.98;99494.94;1762723;79;21076;-50
2021/03/12 11:11:44;;;;;;;25.92;13.90;;;;;;;-2.17;87.11;99495.37;1760168;79;22169;-49
2021/03/12 11:14:13;;;;;;;24.37;14.07;;;;;;;-2.17;87.78;99504.61;1761994;79;20962;-49
2021/03/12 11:16:41;;;;;;;21.15;11.85;;;;;;;-2.15;88.55;99504.16;1761146;79;21107;-48
2021/03/12 11:19:11;;;;;;;23.50;13.70;;;;;;;-2.15;89.32;99492.71;1756702;80;21640;-48
2021/03/12 11:21:39;;;;;;;24.77;13.35;;;;;;;-2.16;89.86;99483.91;1759036;79;21027;-48
2021/03/12 11:24:09;;;;;;;31.33;13.72;;;;;;;-2.16;90.71;99489.20;1761450;79;21362;-49
2021/03/12 11:26:42;;;;;;;31.42;15.03;;;;;;;-2.12;91.17;99490.08;1759354;80;21376;-50
2021/03/12 11:29:10;;;;;;;24.12;14.90;;;;;;;-2.12;91.81;99484.34;1763015;79;21023;-47
2021/03/12 11:31:40;;;;;;;23.65;12.95;;;;;;;-2.09;92.17;99473.32;1759804;80;21029;-49
2021/03/12 11:34:09;;;;;;;25.20;13.45;;;;;;;-2.09;92.67;99478.16;1758741;79;21120;-48
2021/03/12 11:36:38;;;;;;;26.80;14.78;;;;;;;-2.09;92.92;99475.96;1762103;79;21390;-49
2021/03/12 11:39:08;;;;;;;27.90;15.95;;;;;;;-2.09;93.34;99481.25;1762971;79;21077;-51
2021/03/12 11:41:37;;;;;;;35.70;16.65;;;;;;;-2.08;93.63;99477.71;1756167;79;21025;-48
2021/03/12 11:44:06;;;;;;;28.85;13.13;;;;;;;-2.06;94.03;99462.75;1762475;80;21508;-50
2021/03/12 11:46:34;;;;;;;27.17;14.78;;;;;;;-2.06;94.17;99454.38;1761432;79;21101;-50